| time (UTC) | temp F | wind direction | speed MPH | gust MPH | rain 1hr in | rain 24hr in | rain mn in | humidity % | barometer mb |
| 20260905180100 | 60 | 294 | 5.0 | 10.0 | 0.01 | 0.09 | 0.01 | 78 | 1013.2 |
| 20260905180003 | 60 | 320 | 5.0 | 10.0 | 0.01 | 0.09 | 0.01 | 79 | 1013.2 |
| 20260905174606 | 62 | 280 | 7.0 | 11.0 | 0.00 | 0.08 | 0.00 | 76 | 1013.4 |
| 20260905173110 | 68 | 245 | 13.0 | 30.0 | 0.00 | 0.08 | 0.00 | 59 | 1013.6 |
| 20260905171559 | 77 | 88 | 4.0 | 14.0 | 0.00 | 0.08 | 0.00 | 50 | 1012.6 |
| 20260905170059 | 77 | 15 | 4.0 | 11.0 | 0.00 | 0.08 | 0.00 | 51 | 1012.4 |
| 20260905170001 | 77 | 44 | 4.0 | 11.0 | 0.00 | 0.08 | 0.00 | 51 | 1012.4 |
| 20260905164600 | 77 | 91 | 7.0 | 12.0 | 0.00 | 0.08 | 0.00 | 50 | 1012.6 |
| 20260905163106 | 77 | 145 | 3.0 | 7.0 | 0.00 | 0.08 | 0.00 | 52 | 1012.4 |
| 20260905161600 | 76 | 272 | 1.0 | 4.0 | 0.00 | 0.08 | 0.00 | 54 | 1012.7 |
| 20260905160100 | 75 | 112 | 2.0 | 6.0 | 0.00 | 0.08 | 0.00 | 55 | 1012.6 |
| 20260905160002 | 75 | 165 | 1.0 | 5.0 | 0.00 | 0.08 | 0.00 | 54 | 1012.6 |
| 20260905154559 | 75 | 129 | 1.0 | 4.0 | 0.00 | 0.08 | 0.00 | 56 | 1012.8 |
| 20260905153102 | 73 | 138 | 1.0 | 3.0 | 0.00 | 0.08 | 0.00 | 61 | 1013.0 |
| 20260905151559 | 70 | 288 | 0.0 | 3.0 | 0.00 | 0.08 | 0.00 | 69 | 1013.0 |
| 20260905150101 | 68 | 288 | 1.0 | 5.0 | 0.00 | 0.08 | 0.00 | 72 | 1013.2 |
| 20260905150002 | 67 | 236 | 1.0 | 5.0 | 0.00 | 0.08 | 0.00 | 72 | 1013.2 |
| 20260905144559 | 65 | 257 | 2.0 | 6.0 | 0.00 | 0.08 | 0.00 | 74 | 1013.2 |
| 20260905143100 | 63 | 291 | 2.0 | 4.0 | 0.00 | 0.08 | 0.00 | 77 | 1013.3 |
| 20260905141613 | 61 | 283 | 1.0 | 5.0 | 0.00 | 0.08 | 0.00 | 80 | 1013.3 |
| 20260905140105 | 60 | 258 | 3.0 | 8.0 | 0.00 | 0.08 | 0.00 | 81 | 1013.2 |
| 20260905134607 | 59 | 289 | 3.0 | 9.0 | 0.00 | 0.08 | 0.00 | 82 | 1013.2 |
| 20260905133100 | 57 | 319 | 3.0 | 8.0 | 0.00 | 0.08 | 0.00 | 84 | 1012.9 |
| 20260905131600 | 57 | 284 | 3.0 | 8.0 | 0.00 | 0.08 | 0.00 | 85 | 1012.9 |
| 20260905130101 | 56 | 281 | 4.0 | 8.0 | 0.00 | 0.08 | 0.00 | 85 | 1012.7 |
| 20260905130000 | 56 | 284 | 5.0 | 8.0 | 0.00 | 0.08 | 0.00 | 85 | 1012.7 |
| 20260905124559 | 56 | 271 | 4.0 | 10.0 | 0.00 | 0.08 | 0.00 | 85 | 1012.5 |
| 20260905123101 | 56 | 270 | 4.0 | 8.0 | 0.00 | 0.08 | 0.00 | 85 | 1012.4 |
| 20260905121600 | 56 | 285 | 4.0 | 9.0 | 0.00 | 0.08 | 0.00 | 85 | 1012.3 |
| 20260905120100 | 56 | 273 | 2.0 | 7.0 | 0.00 | 0.08 | 0.00 | 85 | 1012.3 |
| 20260905114628 | 56 | 259 | 5.0 | 10.0 | 0.00 | 0.08 | 0.00 | 84 | 1012.2 |
| 20260905113100 | 56 | 276 | 5.0 | 8.0 | 0.00 | 0.08 | 0.00 | 84 | 1011.9 |
| 20260905111558 | 56 | 266 | 5.0 | 9.0 | 0.00 | 0.08 | 0.00 | 84 | 1011.8 |
| 20260905110058 | 56 | 263 | 5.0 | 9.0 | 0.00 | 0.08 | 0.00 | 84 | 1011.7 |
| 20260905104559 | 56 | 263 | 4.0 | 8.0 | 0.00 | 0.08 | 0.00 | 83 | 1011.6 |
| 20260905103100 | 56 | 285 | 3.0 | 9.0 | 0.00 | 0.08 | 0.00 | 83 | 1011.4 |
| 20260905101559 | 56 | 262 | 4.0 | 8.0 | 0.00 | 0.08 | 0.00 | 83 | 1011.3 |
| 20260905100114 | 57 | 265 | 5.0 | 9.0 | 0.00 | 0.08 | 0.00 | 82 | 1011.2 |
| 20260905094617 | 57 | 275 | 5.0 | 9.0 | 0.00 | 0.08 | 0.00 | 82 | 1011.2 |
| 20260905093059 | 57 | 274 | 5.0 | 9.0 | 0.00 | 0.08 | 0.00 | 82 | 1011.3 |
| 20260905091614 | 57 | 272 | 4.0 | 8.0 | 0.00 | 0.08 | 0.00 | 82 | 1011.5 |
| 20260905090058 | 57 | 250 | 2.0 | 7.0 | 0.00 | 0.08 | 0.00 | 82 | 1011.5 |
| 20260905084558 | 57 | 276 | 5.0 | 9.0 | 0.00 | 0.08 | 0.00 | 82 | 1011.2 |
| 20260905083100 | 57 | 267 | 5.0 | 9.0 | 0.00 | 0.08 | 0.00 | 82 | 1011.1 |
| 20260905081558 | 57 | 282 | 4.0 | 9.0 | 0.00 | 0.08 | 0.00 | 81 | 1011.1 |
| 20260905080058 | 57 | 292 | 4.0 | 10.0 | 0.00 | 0.08 | 0.00 | 81 | 1011.5 |
| 20260905074602 | 57 | 289 | 5.0 | 9.0 | 0.00 | 0.08 | 0.00 | 81 | 1011.7 |
| 20260905073107 | 58 | 292 | 4.0 | 10.0 | 0.00 | 0.08 | 0.00 | 81 | 1011.6 |
| 20260905071558 | 58 | 262 | 5.0 | 9.0 | 0.00 | 0.08 | 0.00 | 81 | 1011.4 |
| 20260905070058 | 58 | 290 | 4.0 | 8.0 | 0.00 | 0.08 | 0.00 | 80 | 1011.5 |
| 20260905070002 | 58 | 276 | 4.0 | 8.0 | 0.00 | 0.08 | 0.00 | 80 | 1011.5 |
| 20260905064614 | 58 | 284 | 4.0 | 9.0 | 0.00 | 0.08 | 0.00 | 80 | 1011.3 |
| 20260905063001 | 58 | 244 | 5.0 | 9.0 | 0.00 | 0.08 | 0.00 | 80 | 1011.4 |
| 20260905061502 | 58 | 265 | 4.0 | 10.0 | 0.00 | 0.08 | 0.00 | 80 | 1011.4 |
| 20260905060011 | 59 | 273 | 4.0 | 8.0 | 0.00 | 0.08 | 0.08 | 80 | 1011.7 |
| 20260905054604 | 59 | 273 | 4.0 | 10.0 | 0.00 | 0.08 | 0.08 | 80 | 1011.5 |
| 20260905053102 | 59 | 286 | 4.0 | 9.0 | 0.00 | 0.08 | 0.08 | 80 | 1011.7 |
| 20260905051611 | 59 | 267 | 5.0 | 8.0 | 0.00 | 0.08 | 0.08 | 80 | 1011.7 |
| 20260905050107 | 59 | 259 | 3.0 | 6.0 | 0.00 | 0.08 | 0.08 | 80 | 1011.4 |
| 20260905050002 | 59 | 258 | 2.0 | 5.0 | 0.00 | 0.08 | 0.08 | 80 | 1011.4 |
| 20260905044602 | 60 | 273 | 3.0 | 7.0 | 0.00 | 0.08 | 0.08 | 80 | 1011.7 |
| 20260905043100 | 60 | 271 | 4.0 | 7.0 | 0.00 | 0.08 | 0.08 | 82 | 1011.9 |
| 20260905041602 | 60 | 327 | 3.0 | 8.0 | 0.00 | 0.08 | 0.08 | 83 | 1011.8 |
| 20260905040003 | 61 | 279 | 3.0 | 6.0 | 0.00 | 0.08 | 0.08 | 83 | 1011.9 |
| 20260905034501 | 62 | 263 | 1.0 | 3.0 | 0.00 | 0.08 | 0.08 | 82 | 1011.7 |
| 20260905033006 | 63 | 263 | 1.0 | 3.0 | 0.00 | 0.08 | 0.08 | 83 | 1011.8 |
| 20260905031503 | 64 | 263 | 0.0 | 3.0 | 0.01 | 0.08 | 0.08 | 82 | 1011.6 |
| 20260905030004 | 64 | 263 | 2.0 | 3.0 | 0.01 | 0.08 | 0.08 | 78 | 1011.5 |
| 20260905024600 | 65 | 263 | 0.0 | 4.0 | 0.01 | 0.08 | 0.08 | 78 | 1011.4 |
| 20260905023127 | 65 | 263 | 0.0 | 4.0 | 0.01 | 0.08 | 0.08 | 77 | 1011.1 |
| 20260905021601 | 65 | 227 | 3.0 | 8.0 | 0.00 | 0.07 | 0.07 | 78 | 1011.0 |
| 20260905020104 | 65 | 274 | 2.0 | 4.0 | 0.00 | 0.07 | 0.07 | 79 | 1010.5 |
| 20260905014606 | 66 | 271 | 2.0 | 3.0 | 0.00 | 0.07 | 0.07 | 77 | 1010.3 |
| 20260905013059 | 68 | 259 | 1.0 | 3.0 | 0.00 | 0.07 | 0.07 | 74 | 1010.3 |
| 20260905011605 | 70 | 259 | 1.0 | 2.0 | 0.00 | 0.07 | 0.07 | 68 | 1010.2 |
| 20260905010059 | 71 | 259 | 1.0 | 2.0 | 0.00 | 0.07 | 0.07 | 66 | 1009.9 |
| 20260905010001 | 72 | 259 | 1.0 | 2.0 | 0.00 | 0.07 | 0.07 | 65 | 1009.9 |
| 20260905004600 | 72 | 259 | 0.0 | 1.0 | 0.00 | 0.07 | 0.07 | 64 | 1010.0 |
| 20260905003100 | 73 | 259 | 0.0 | 3.0 | 0.00 | 0.07 | 0.07 | 63 | 1010.1 |
| 20260905001608 | 73 | 270 | 1.0 | 3.0 | 0.00 | 0.07 | 0.07 | 63 | 1010.1 |
| 20260905000118 | 72 | 350 | 0.0 | 4.0 | 0.00 | 0.07 | 0.07 | 65 | 1010.4 |
| 20260905000002 | 71 | 350 | 1.0 | 4.0 | 0.00 | 0.07 | 0.07 | 65 | 1010.4 |
| 20260904234600 | 70 | 277 | 2.0 | 6.0 | 0.00 | 0.08 | 0.07 | 68 | 1010.4 |
| 20260904233103 | 70 | 316 | 2.0 | 4.0 | 0.00 | 0.08 | 0.07 | 67 | 1010.3 |
| 20260904231603 | 69 | 311 | 1.0 | 5.0 | 0.00 | 0.08 | 0.07 | 70 | 1010.3 |
| 20260904230100 | 68 | 307 | 1.0 | 3.0 | 0.00 | 0.08 | 0.07 | 70 | 1010.1 |
| 20260904230002 | 68 | 307 | 1.0 | 3.0 | 0.00 | 0.08 | 0.07 | 69 | 1010.1 |
| 20260904224604 | 67 | 308 | 1.0 | 4.0 | 0.00 | 0.08 | 0.07 | 72 | 1010.5 |
| 20260904223100 | 67 | 63 | 1.0 | 8.0 | 0.00 | 0.08 | 0.07 | 71 | 1010.5 |
| 20260904221603 | 71 | 197 | 4.0 | 10.0 | 0.00 | 0.08 | 0.07 | 64 | 1010.6 |
| 20260904220115 | 73 | 164 | 5.0 | 10.0 | 0.00 | 0.08 | 0.07 | 63 | 1010.5 |
| 20260904220001 | 73 | 130 | 3.0 | 10.0 | 0.00 | 0.08 | 0.07 | 62 | 1010.5 |
| 20260904214600 | 73 | 118 | 3.0 | 8.0 | 0.00 | 0.27 | 0.07 | 61 | 1010.3 |
| 20260904213059 | 73 | 140 | 2.0 | 9.0 | 0.00 | 0.27 | 0.07 | 61 | 1010.6 |
| 20260904211601 | 73 | 254 | 3.0 | 6.0 | 0.00 | 0.27 | 0.07 | 64 | 1010.7 |
| 20260904210117 | 72 | 277 | 2.0 | 8.0 | 0.00 | 0.27 | 0.07 | 66 | 1011.1 |
| 20260904204558 | 72 | 244 | 3.0 | 8.0 | 0.00 | 0.44 | 0.07 | 66 | 1011.2 |
| 20260904203058 | 73 | 259 | 6.0 | 10.0 | 0.00 | 0.44 | 0.07 | 66 | 1011.3 |
| 20260904201558 | 71 | 287 | 4.0 | 8.0 | 0.00 | 0.44 | 0.07 | 68 | 1011.4 |
| 20260904200059 | 71 | 248 | 3.0 | 12.0 | 0.00 | 0.44 | 0.07 | 73 | 1011.7 |
| 20260904200003 | 71 | 273 | 3.0 | 12.0 | 0.00 | 0.44 | 0.07 | 73 | 1011.7 |
| 20260904194609 | 68 | 265 | 5.0 | 9.0 | 0.00 | 0.61 | 0.07 | 78 | 1012.1 |
| 20260904193114 | 64 | 249 | 5.0 | 9.0 | 0.01 | 0.61 | 0.07 | 83 | 1012.1 |
| 20260904191600 | 63 | 226 | 5.0 | 12.0 | 0.06 | 0.61 | 0.07 | 86 | 1012.3 |
| 20260904190100 | 61 | 261 | 7.0 | 14.0 | 0.07 | 0.61 | 0.07 | 87 | 1012.7 |
| 20260904190002 | 61 | 267 | 8.0 | 14.0 | 0.07 | 0.61 | 0.07 | 87 | 1012.7 |
| 20260904184621 | 61 | 270 | 5.0 | 11.0 | 0.07 | 0.61 | 0.07 | 86 | 1012.3 |
| 20260904183100 | 61 | 263 | 4.0 | 14.0 | 0.06 | 0.60 | 0.06 | 84 | 1012.4 |
| 20260904181609 | 63 | 266 | 8.0 | 13.0 | 0.01 | 0.55 | 0.01 | 78 | 1012.4 |